sensor_id;sensor_type;location;lat;lon;timestamp;P1;durP1;ratioP1;P2;durP2;ratioP2
57627;SDS011;43451;49.060;10.616;2023-06-10T00:00:41;7.05;;;5.28;;
57627;SDS011;43451;49.060;10.616;2023-06-10T00:03:07;6.32;;;5.35;;
57627;SDS011;43451;49.060;10.616;2023-06-10T00:05:42;6.28;;;5.00;;
57627;SDS011;43451;49.060;10.616;2023-06-10T00:08:07;6.10;;;5.38;;
57627;SDS011;43451;49.060;10.616;2023-06-10T00:10:35;6.22;;;5.35;;
57627;SDS011;43451;49.060;10.616;2023-06-10T00:13:05;6.80;;;5.00;;
57627;SDS011;43451;49.060;10.616;2023-06-10T00:15:35;6.82;;;5.30;;
57627;SDS011;43451;49.060;10.616;2023-06-10T00:18:11;6.32;;;5.47;;
57627;SDS011;43451;49.060;10.616;2023-06-10T00:20:37;6.10;;;5.20;;
57627;SDS011;43451;49.060;10.616;2023-06-10T00:23:07;7.28;;;5.63;;
57627;SDS011;43451;49.060;10.616;2023-06-10T00:25:34;6.10;;;5.30;;
57627;SDS011;43451;49.060;10.616;2023-06-10T00:28:08;7.97;;;5.47;;
57627;SDS011;43451;49.060;10.616;2023-06-10T00:30:34;6.18;;;5.53;;
57627;SDS011;43451;49.060;10.616;2023-06-10T00:33:02;7.25;;;5.32;;
57627;SDS011;43451;49.060;10.616;2023-06-10T00:35:34;7.45;;;5.90;;
57627;SDS011;43451;49.060;10.616;2023-06-10T00:38:01;6.88;;;5.78;;
57627;SDS011;43451;49.060;10.616;2023-06-10T00:40:29;6.50;;;5.78;;
57627;SDS011;43451;49.060;10.616;2023-06-10T00:42:54;6.82;;;5.30;;
57627;SDS011;43451;49.060;10.616;2023-06-10T00:45:20;6.10;;;5.50;;
57627;SDS011;43451;49.060;10.616;2023-06-10T00:47:45;7.32;;;5.82;;
57627;SDS011;43451;49.060;10.616;2023-06-10T00:50:11;8.18;;;6.07;;
57627;SDS011;43451;49.060;10.616;2023-06-10T00:52:39;8.18;;;6.22;;
57627;SDS011;43451;49.060;10.616;2023-06-10T00:55:11;6.82;;;5.53;;
57627;SDS011;43451;49.060;10.616;2023-06-10T01:00:09;8.88;;;5.80;;
57627;SDS011;43451;49.060;10.616;2023-06-10T01:02:37;7.18;;;6.20;;
57627;SDS011;43451;49.060;10.616;2023-06-10T01:07:37;7.88;;;5.43;;
57627;SDS011;43451;49.060;10.616;2023-06-10T01:13:02;6.78;;;5.80;;
57627;SDS011;43451;49.060;10.616;2023-06-10T01:15:32;8.63;;;6.22;;
57627;SDS011;43451;49.060;10.616;2023-06-10T01:18:00;9.10;;;5.95;;
57627;SDS011;43451;49.060;10.616;2023-06-10T01:20:37;11.98;;;6.10;;
57627;SDS011;43451;49.060;10.616;2023-06-10T01:25:40;7.55;;;6.50;;
57627;SDS011;43451;49.060;10.616;2023-06-10T01:34:13;11.65;;;9.07;;
57627;SDS011;43451;49.060;10.616;2023-06-10T01:39:16;11.25;;;6.70;;
57627;SDS011;43451;49.060;10.616;2023-06-10T01:41:44;8.48;;;6.75;;
57627;SDS011;43451;49.060;10.616;2023-06-10T01:44:11;8.18;;;6.60;;
57627;SDS011;43451;49.060;10.616;2023-06-10T01:46:37;24.08;;;15.98;;
57627;SDS011;43451;49.060;10.616;2023-06-10T01:49:02;10.10;;;7.75;;
57627;SDS011;43451;49.060;10.616;2023-06-10T01:53:59;7.30;;;6.28;;
57627;SDS011;43451;49.060;10.616;2023-06-10T01:56:27;10.68;;;6.53;;
57627;SDS011;43451;49.060;10.616;2023-06-10T01:58:54;8.40;;;6.65;;
57627;SDS011;43451;49.060;10.616;2023-06-10T02:01:23;6.93;;;5.88;;
57627;SDS011;43451;49.060;10.616;2023-06-10T02:03:55;9.35;;;6.03;;
57627;SDS011;43451;49.060;10.616;2023-06-10T02:08:54;9.38;;;6.80;;
57627;SDS011;43451;49.060;10.616;2023-06-10T02:11:22;7.28;;;6.43;;
57627;SDS011;43451;49.060;10.616;2023-06-10T02:13:47;8.63;;;6.28;;
57627;SDS011;43451;49.060;10.616;2023-06-10T02:16:17;8.82;;;6.28;;
57627;SDS011;43451;49.060;10.616;2023-06-10T02:18:48;6.80;;;6.10;;
57627;SDS011;43451;49.060;10.616;2023-06-10T02:21:25;7.68;;;6.43;;
57627;SDS011;43451;49.060;10.616;2023-06-10T02:23:51;9.23;;;6.53;;
57627;SDS011;43451;49.060;10.616;2023-06-10T02:26:30;8.13;;;6.35;;
57627;SDS011;43451;49.060;10.616;2023-06-10T02:28:57;7.97;;;6.15;;
57627;SDS011;43451;49.060;10.616;2023-06-10T02:31:29;11.10;;;6.43;;
57627;SDS011;43451;49.060;10.616;2023-06-10T02:36:32;7.75;;;6.60;;
57627;SDS011;43451;49.060;10.616;2023-06-10T02:39:02;7.90;;;6.38;;
57627;SDS011;43451;49.060;10.616;2023-06-10T02:41:30;7.68;;;6.38;;
57627;SDS011;43451;49.060;10.616;2023-06-10T02:43:55;7.55;;;6.43;;
57627;SDS011;43451;49.060;10.616;2023-06-10T02:46:26;7.85;;;6.32;;
57627;SDS011;43451;49.060;10.616;2023-06-10T02:48:58;7.85;;;6.95;;
57627;SDS011;43451;49.060;10.616;2023-06-10T02:51:25;6.90;;;6.20;;
57627;SDS011;43451;49.060;10.616;2023-06-10T02:54:02;7.72;;;6.53;;
57627;SDS011;43451;49.060;10.616;2023-06-10T02:56:29;8.00;;;6.53;;
57627;SDS011;43451;49.060;10.616;2023-06-10T03:01:33;7.70;;;6.68;;
57627;SDS011;43451;49.060;10.616;2023-06-10T03:04:04;8.75;;;6.38;;
57627;SDS011;43451;49.060;10.616;2023-06-10T03:06:36;8.20;;;6.53;;
57627;SDS011;43451;49.060;10.616;2023-06-10T03:09:03;10.85;;;6.80;;
57627;SDS011;43451;49.060;10.616;2023-06-10T03:11:33;7.00;;;6.28;;
57627;SDS011;43451;49.060;10.616;2023-06-10T03:13:59;8.05;;;6.90;;
57627;SDS011;43451;49.060;10.616;2023-06-10T03:16:24;7.28;;;6.15;;
57627;SDS011;43451;49.060;10.616;2023-06-10T03:18:52;7.57;;;6.00;;
57627;SDS011;43451;49.060;10.616;2023-06-10T03:21:18;7.20;;;6.47;;
57627;SDS011;43451;49.060;10.616;2023-06-10T03:23:53;7.00;;;6.30;;
57627;SDS011;43451;49.060;10.616;2023-06-10T03:26:28;9.43;;;6.60;;
57627;SDS011;43451;49.060;10.616;2023-06-10T03:28:54;7.18;;;6.32;;
57627;SDS011;43451;49.060;10.616;2023-06-10T03:31:19;9.50;;;7.03;;
57627;SDS011;43451;49.060;10.616;2023-06-10T03:33:49;10.55;;;6.97;;
57627;SDS011;43451;49.060;10.616;2023-06-10T03:36:19;8.88;;;6.80;;
57627;SDS011;43451;49.060;10.616;2023-06-10T03:38:45;8.85;;;7.20;;
57627;SDS011;43451;49.060;10.616;2023-06-10T03:41:13;10.25;;;7.03;;
57627;SDS011;43451;49.060;10.616;2023-06-10T03:43:38;7.40;;;6.60;;
57627;SDS011;43451;49.060;10.616;2023-06-10T03:46:05;8.45;;;6.50;;
57627;SDS011;43451;49.060;10.616;2023-06-10T03:48:31;9.93;;;6.47;;
57627;SDS011;43451;49.060;10.616;2023-06-10T03:50:56;8.07;;;6.65;;
57627;SDS011;43451;49.060;10.616;2023-06-10T03:53:21;7.07;;;6.22;;
57627;SDS011;43451;49.060;10.616;2023-06-10T03:55:48;7.85;;;6.80;;
57627;SDS011;43451;49.060;10.616;2023-06-10T03:58:18;10.00;;;6.95;;
57627;SDS011;43451;49.060;10.616;2023-06-10T04:03:25;7.97;;;6.57;;
57627;SDS011;43451;49.060;10.616;2023-06-10T04:05:53;8.23;;;6.72;;
57627;SDS011;43451;49.060;10.616;2023-06-10T04:08:28;10.57;;;7.60;;
57627;SDS011;43451;49.060;10.616;2023-06-10T04:10:58;8.82;;;6.95;;
57627;SDS011;43451;49.060;10.616;2023-06-10T04:13:26;9.40;;;7.35;;
57627;SDS011;43451;49.060;10.616;2023-06-10T04:15:54;8.30;;;6.95;;
57627;SDS011;43451;49.060;10.616;2023-06-10T04:18:30;9.02;;;7.32;;
57627;SDS011;43451;49.060;10.616;2023-06-10T04:20:56;9.38;;;7.40;;
57627;SDS011;43451;49.060;10.616;2023-06-10T04:23:22;9.60;;;7.55;;
57627;SDS011;43451;49.060;10.616;2023-06-10T04:25:47;8.35;;;7.25;;
57627;SDS011;43451;49.060;10.616;2023-06-10T04:28:15;9.27;;;7.82;;
57627;SDS011;43451;49.060;10.616;2023-06-10T04:30:43;9.15;;;8.07;;
57627;SDS011;43451;49.060;10.616;2023-06-10T04:33:12;8.68;;;7.53;;
57627;SDS011;43451;49.060;10.616;2023-06-10T04:38:30;8.38;;;7.47;;
57627;SDS011;43451;49.060;10.616;2023-06-10T04:41:03;14.35;;;7.97;;
57627;SDS011;43451;49.060;10.616;2023-06-10T04:43:29;9.35;;;7.38;;
57627;SDS011;43451;49.060;10.616;2023-06-10T04:46:14;8.95;;;7.30;;
57627;SDS011;43451;49.060;10.616;2023-06-10T04:48:43;8.85;;;7.70;;
57627;SDS011;43451;49.060;10.616;2023-06-10T04:56:19;10.18;;;7.85;;
57627;SDS011;43451;49.060;10.616;2023-06-10T04:58:45;9.93;;;8.07;;
57627;SDS011;43451;49.060;10.616;2023-06-10T05:01:10;10.40;;;8.35;;
57627;SDS011;43451;49.060;10.616;2023-06-10T05:03:35;9.38;;;7.72;;
57627;SDS011;43451;49.060;10.616;2023-06-10T05:06:02;9.35;;;7.85;;
57627;SDS011;43451;49.060;10.616;2023-06-10T05:08:38;9.50;;;8.50;;
57627;SDS011;43451;49.060;10.616;2023-06-10T05:11:11;9.48;;;8.05;;
57627;SDS011;43451;49.060;10.616;2023-06-10T05:13:37;8.90;;;8.00;;
57627;SDS011;43451;49.060;10.616;2023-06-10T05:16:03;9.57;;;7.80;;
57627;SDS011;43451;49.060;10.616;2023-06-10T05:18:33;8.43;;;7.53;;
57627;SDS011;43451;49.060;10.616;2023-06-10T05:20:58;10.30;;;7.75;;
57627;SDS011;43451;49.060;10.616;2023-06-10T05:23:24;10.85;;;8.32;;
57627;SDS011;43451;49.060;10.616;2023-06-10T05:25:49;11.55;;;8.57;;
57627;SDS011;43451;49.060;10.616;2023-06-10T05:28:17;8.85;;;7.82;;
57627;SDS011;43451;49.060;10.616;2023-06-10T05:30:43;10.00;;;8.43;;
57627;SDS011;43451;49.060;10.616;2023-06-10T05:33:08;9.30;;;8.00;;
57627;SDS011;43451;49.060;10.616;2023-06-10T05:35:34;9.55;;;7.88;;
57627;SDS011;43451;49.060;10.616;2023-06-10T05:38:00;8.80;;;7.78;;
57627;SDS011;43451;49.060;10.616;2023-06-10T05:40:27;10.30;;;7.90;;
57627;SDS011;43451;49.060;10.616;2023-06-10T05:42:55;9.20;;;8.30;;
57627;SDS011;43451;49.060;10.616;2023-06-10T05:45:21;9.68;;;8.10;;
57627;SDS011;43451;49.060;10.616;2023-06-10T05:47:46;35.72;;;8.60;;
57627;SDS011;43451;49.060;10.616;2023-06-10T05:50:13;8.63;;;7.72;;
57627;SDS011;43451;49.060;10.616;2023-06-10T05:52:38;8.68;;;7.60;;
57627;SDS011;43451;49.060;10.616;2023-06-10T05:55:05;8.10;;;7.30;;
57627;SDS011;43451;49.060;10.616;2023-06-10T05:57:31;8.70;;;7.35;;
57627;SDS011;43451;49.060;10.616;2023-06-10T05:59:57;9.38;;;7.70;;
57627;SDS011;43451;49.060;10.616;2023-06-10T06:02:22;9.25;;;7.32;;
57627;SDS011;43451;49.060;10.616;2023-06-10T06:04:49;9.63;;;7.32;;
57627;SDS011;43451;49.060;10.616;2023-06-10T06:07:14;9.40;;;7.88;;
57627;SDS011;43451;49.060;10.616;2023-06-10T06:09:40;8.75;;;7.25;;
57627;SDS011;43451;49.060;10.616;2023-06-10T06:12:06;8.05;;;7.25;;
57627;SDS011;43451;49.060;10.616;2023-06-10T06:14:32;10.90;;;7.15;;
57627;SDS011;43451;49.060;10.616;2023-06-10T06:17:02;7.63;;;6.82;;
57627;SDS011;43451;49.060;10.616;2023-06-10T06:19:27;10.82;;;7.82;;
57627;SDS011;43451;49.060;10.616;2023-06-10T06:21:53;9.15;;;7.28;;
57627;SDS011;43451;49.060;10.616;2023-06-10T06:24:19;8.00;;;7.15;;
57627;SDS011;43451;49.060;10.616;2023-06-10T06:26:44;8.10;;;7.20;;
57627;SDS011;43451;49.060;10.616;2023-06-10T06:29:10;8.43;;;7.53;;
57627;SDS011;43451;49.060;10.616;2023-06-10T06:31:35;7.97;;;7.18;;
57627;SDS011;43451;49.060;10.616;2023-06-10T06:34:01;8.43;;;7.05;;
57627;SDS011;43451;49.060;10.616;2023-06-10T06:36:27;8.40;;;7.22;;
57627;SDS011;43451;49.060;10.616;2023-06-10T06:38:52;10.20;;;7.15;;
57627;SDS011;43451;49.060;10.616;2023-06-10T06:41:18;9.35;;;7.38;;
57627;SDS011;43451;49.060;10.616;2023-06-10T06:43:44;9.07;;;6.93;;
57627;SDS011;43451;49.060;10.616;2023-06-10T06:46:10;8.90;;;7.32;;
57627;SDS011;43451;49.060;10.616;2023-06-10T06:48:35;8.30;;;7.38;;
57627;SDS011;43451;49.060;10.616;2023-06-10T06:51:01;9.63;;;7.78;;
57627;SDS011;43451;49.060;10.616;2023-06-10T06:53:26;9.25;;;7.63;;
57627;SDS011;43451;49.060;10.616;2023-06-10T06:55:53;8.40;;;7.57;;
57627;SDS011;43451;49.060;10.616;2023-06-10T06:58:18;7.35;;;6.63;;
57627;SDS011;43451;49.060;10.616;2023-06-10T07:00:44;8.18;;;7.38;;
57627;SDS011;43451;49.060;10.616;2023-06-10T07:03:10;8.93;;;7.68;;
57627;SDS011;43451;49.060;10.616;2023-06-10T07:05:35;9.73;;;7.43;;
57627;SDS011;43451;49.060;10.616;2023-06-10T07:08:01;8.25;;;7.45;;
57627;SDS011;43451;49.060;10.616;2023-06-10T07:10:26;8.27;;;7.47;;
57627;SDS011;43451;49.060;10.616;2023-06-10T07:12:54;10.00;;;7.03;;
57627;SDS011;43451;49.060;10.616;2023-06-10T07:15:19;8.50;;;7.20;;
57627;SDS011;43451;49.060;10.616;2023-06-10T07:17:45;7.80;;;6.85;;
57627;SDS011;43451;49.060;10.616;2023-06-10T07:20:11;7.78;;;6.88;;
57627;SDS011;43451;49.060;10.616;2023-06-10T07:22:37;8.30;;;6.95;;
57627;SDS011;43451;49.060;10.616;2023-06-10T07:25:05;8.40;;;7.50;;
57627;SDS011;43451;49.060;10.616;2023-06-10T07:27:31;7.57;;;6.70;;
57627;SDS011;43451;49.060;10.616;2023-06-10T07:29:57;10.13;;;6.68;;
57627;SDS011;43451;49.060;10.616;2023-06-10T07:32:22;9.07;;;6.65;;
57627;SDS011;43451;49.060;10.616;2023-06-10T07:34:49;19.70;;;7.57;;
57627;SDS011;43451;49.060;10.616;2023-06-10T07:37:15;9.50;;;7.07;;
57627;SDS011;43451;49.060;10.616;2023-06-10T07:39:41;9.25;;;7.25;;
57627;SDS011;43451;49.060;10.616;2023-06-10T07:42:08;7.90;;;7.03;;
57627;SDS011;43451;49.060;10.616;2023-06-10T07:44:33;7.78;;;6.97;;
57627;SDS011;43451;49.060;10.616;2023-06-10T07:46:59;20.75;;;7.22;;
57627;SDS011;43451;49.060;10.616;2023-06-10T07:49:25;24.05;;;7.20;;
57627;SDS011;43451;49.060;10.616;2023-06-10T07:51:50;6.75;;;6.05;;
57627;SDS011;43451;49.060;10.616;2023-06-10T07:54:16;7.00;;;6.13;;
57627;SDS011;43451;49.060;10.616;2023-06-10T07:56:42;9.98;;;6.15;;
57627;SDS011;43451;49.060;10.616;2023-06-10T07:59:07;12.43;;;6.07;;
57627;SDS011;43451;49.060;10.616;2023-06-10T08:01:33;7.30;;;5.80;;
57627;SDS011;43451;49.060;10.616;2023-06-10T08:04:01;6.00;;;5.28;;
57627;SDS011;43451;49.060;10.616;2023-06-10T08:06:26;7.13;;;5.20;;
57627;SDS011;43451;49.060;10.616;2023-06-10T08:08:52;8.52;;;6.00;;
57627;SDS011;43451;49.060;10.616;2023-06-10T08:11:18;10.63;;;5.57;;
57627;SDS011;43451;49.060;10.616;2023-06-10T08:13:43;6.88;;;5.65;;
57627;SDS011;43451;49.060;10.616;2023-06-10T08:16:09;6.50;;;5.30;;
57627;SDS011;43451;49.060;10.616;2023-06-10T08:18:35;6.63;;;5.80;;
57627;SDS011;43451;49.060;10.616;2023-06-10T08:21:00;8.25;;;6.07;;
57627;SDS011;43451;49.060;10.616;2023-06-10T08:23:26;7.22;;;5.53;;
57627;SDS011;43451;49.060;10.616;2023-06-10T08:25:51;7.20;;;6.25;;
57627;SDS011;43451;49.060;10.616;2023-06-10T08:28:17;8.07;;;6.90;;
57627;SDS011;43451;49.060;10.616;2023-06-10T08:30:43;8.52;;;6.32;;
57627;SDS011;43451;49.060;10.616;2023-06-10T08:33:10;9.70;;;6.57;;
57627;SDS011;43451;49.060;10.616;2023-06-10T08:35:35;8.45;;;6.53;;
57627;SDS011;43451;49.060;10.616;2023-06-10T08:38:01;7.93;;;7.00;;
57627;SDS011;43451;49.060;10.616;2023-06-10T08:40:26;7.82;;;6.70;;
57627;SDS011;43451;49.060;10.616;2023-06-10T08:42:53;12.63;;;8.82;;
57627;SDS011;43451;49.060;10.616;2023-06-10T08:45:32;9.35;;;7.43;;
57627;SDS011;43451;49.060;10.616;2023-06-10T08:48:02;10.57;;;8.57;;
57627;SDS011;43451;49.060;10.616;2023-06-10T08:50:35;8.02;;;6.65;;
57627;SDS011;43451;49.060;10.616;2023-06-10T08:53:03;9.38;;;6.97;;
57627;SDS011;43451;49.060;10.616;2023-06-10T08:55:31;39.03;;;7.90;;
57627;SDS011;43451;49.060;10.616;2023-06-10T08:58:02;10.65;;;7.70;;
57627;SDS011;43451;49.060;10.616;2023-06-10T09:00:29;6.72;;;6.03;;
57627;SDS011;43451;49.060;10.616;2023-06-10T09:02:57;6.63;;;5.97;;
57627;SDS011;43451;49.060;10.616;2023-06-10T09:05:23;7.82;;;6.32;;
57627;SDS011;43451;49.060;10.616;2023-06-10T09:07:49;21.05;;;6.68;;
57627;SDS011;43451;49.060;10.616;2023-06-10T09:10:17;6.80;;;5.70;;
57627;SDS011;43451;49.060;10.616;2023-06-10T09:12:43;6.63;;;5.47;;
57627;SDS011;43451;49.060;10.616;2023-06-10T09:15:09;8.23;;;5.68;;
57627;SDS011;43451;49.060;10.616;2023-06-10T09:17:37;5.75;;;5.20;;
57627;SDS011;43451;49.060;10.616;2023-06-10T09:20:09;7.03;;;5.53;;
57627;SDS011;43451;49.060;10.616;2023-06-10T09:22:34;5.80;;;5.07;;
57627;SDS011;43451;49.060;10.616;2023-06-10T09:25:05;5.75;;;5.03;;
57627;SDS011;43451;49.060;10.616;2023-06-10T09:27:47;5.75;;;5.15;;
57627;SDS011;43451;49.060;10.616;2023-06-10T09:30:25;5.43;;;4.93;;
57627;SDS011;43451;49.060;10.616;2023-06-10T09:33:00;6.18;;;4.95;;
57627;SDS011;43451;49.060;10.616;2023-06-10T09:35:27;8.18;;;5.05;;
57627;SDS011;43451;49.060;10.616;2023-06-10T09:37:55;5.53;;;4.90;;
57627;SDS011;43451;49.060;10.616;2023-06-10T09:40:22;5.30;;;4.78;;
57627;SDS011;43451;49.060;10.616;2023-06-10T09:42:55;4.88;;;4.38;;
57627;SDS011;43451;49.060;10.616;2023-06-10T09:45:22;9.45;;;5.55;;
57627;SDS011;43451;49.060;10.616;2023-06-10T09:47:55;13.10;;;5.15;;
57627;SDS011;43451;49.060;10.616;2023-06-10T09:50:20;5.93;;;5.00;;
57627;SDS011;43451;49.060;10.616;2023-06-10T09:52:47;6.20;;;5.30;;
57627;SDS011;43451;49.060;10.616;2023-06-10T09:55:13;6.50;;;4.93;;
57627;SDS011;43451;49.060;10.616;2023-06-10T09:57:39;6.00;;;4.70;;
57627;SDS011;43451;49.060;10.616;2023-06-10T10:00:09;5.45;;;4.95;;
57627;SDS011;43451;49.060;10.616;2023-06-10T10:02:46;5.85;;;4.75;;
57627;SDS011;43451;49.060;10.616;2023-06-10T10:05:16;5.55;;;5.00;;
57627;SDS011;43451;49.060;10.616;2023-06-10T10:07:44;7.57;;;4.97;;
57627;SDS011;43451;49.060;10.616;2023-06-10T10:10:10;5.80;;;5.20;;
57627;SDS011;43451;49.060;10.616;2023-06-10T10:12:38;9.48;;;5.20;;
57627;SDS011;43451;49.060;10.616;2023-06-10T10:15:09;5.53;;;5.03;;
57627;SDS011;43451;49.060;10.616;2023-06-10T10:17:38;5.60;;;5.10;;
57627;SDS011;43451;49.060;10.616;2023-06-10T10:20:08;10.85;;;5.68;;
57627;SDS011;43451;49.060;10.616;2023-06-10T10:22:41;7.85;;;5.38;;
57627;SDS011;43451;49.060;10.616;2023-06-10T10:25:12;5.30;;;4.90;;
57627;SDS011;43451;49.060;10.616;2023-06-10T10:27:43;6.35;;;5.47;;
57627;SDS011;43451;49.060;10.616;2023-06-10T10:30:14;10.82;;;6.03;;
57627;SDS011;43451;49.060;10.616;2023-06-10T10:35:32;5.05;;;4.45;;
57627;SDS011;43451;49.060;10.616;2023-06-10T10:37:58;6.93;;;4.82;;
57627;SDS011;43451;49.060;10.616;2023-06-10T10:40:25;5.40;;;4.90;;
57627;SDS011;43451;49.060;10.616;2023-06-10T10:42:55;7.30;;;5.03;;
57627;SDS011;43451;49.060;10.616;2023-06-10T10:45:21;6.68;;;4.97;;
57627;SDS011;43451;49.060;10.616;2023-06-10T10:47:51;5.22;;;4.72;;
57627;SDS011;43451;49.060;10.616;2023-06-10T10:50:19;6.40;;;4.90;;
57627;SDS011;43451;49.060;10.616;2023-06-10T10:55:22;4.60;;;3.80;;
57627;SDS011;43451;49.060;10.616;2023-06-10T11:00:30;5.70;;;4.22;;
57627;SDS011;43451;49.060;10.616;2023-06-10T11:05:39;13.20;;;4.28;;
57627;SDS011;43451;49.060;10.616;2023-06-10T11:08:07;11.88;;;4.10;;
57627;SDS011;43451;49.060;10.616;2023-06-10T11:10:35;4.05;;;3.65;;
57627;SDS011;43451;49.060;10.616;2023-06-10T11:13:09;9.02;;;3.90;;
57627;SDS011;43451;49.060;10.616;2023-06-10T11:15:39;5.75;;;3.70;;
57627;SDS011;43451;49.060;10.616;2023-06-10T11:23:38;4.35;;;3.90;;
57627;SDS011;43451;49.060;10.616;2023-06-10T11:31:23;5.22;;;4.30;;
57627;SDS011;43451;49.060;10.616;2023-06-10T11:34:05;5.03;;;4.53;;
57627;SDS011;43451;49.060;10.616;2023-06-10T11:36:32;19.33;;;5.35;;
57627;SDS011;43451;49.060;10.616;2023-06-10T11:39:05;20.77;;;5.43;;
57627;SDS011;43451;49.060;10.616;2023-06-10T11:41:31;6.93;;;4.78;;
57627;SDS011;43451;49.060;10.616;2023-06-10T11:44:02;4.90;;;4.50;;
57627;SDS011;43451;49.060;10.616;2023-06-10T11:46:30;5.82;;;4.57;;
57627;SDS011;43451;49.060;10.616;2023-06-10T11:48:57;5.50;;;4.50;;
57627;SDS011;43451;49.060;10.616;2023-06-10T11:51:27;5.25;;;4.50;;
57627;SDS011;43451;49.060;10.616;2023-06-10T11:53:55;7.75;;;4.88;;
57627;SDS011;43451;49.060;10.616;2023-06-10T11:56:22;5.23;;;4.73;;
57627;SDS011;43451;49.060;10.616;2023-06-10T11:58:55;5.60;;;4.95;;
57627;SDS011;43451;49.060;10.616;2023-06-10T12:01:23;7.32;;;5.32;;
57627;SDS011;43451;49.060;10.616;2023-06-10T12:04:06;7.07;;;5.05;;
57627;SDS011;43451;49.060;10.616;2023-06-10T12:09:42;6.57;;;5.10;;
57627;SDS011;43451;49.060;10.616;2023-06-10T12:12:02;5.30;;;4.78;;
57627;SDS011;43451;49.060;10.616;2023-06-10T12:19:56;5.00;;;4.53;;
57627;SDS011;43451;49.060;10.616;2023-06-10T12:22:21;7.00;;;4.45;;
57627;SDS011;43451;49.060;10.616;2023-06-10T12:25:02;7.72;;;4.70;;
57627;SDS011;43451;49.060;10.616;2023-06-10T12:27:29;7.32;;;4.50;;
57627;SDS011;43451;49.060;10.616;2023-06-10T12:29:57;7.85;;;4.30;;
57627;SDS011;43451;49.060;10.616;2023-06-10T12:32:38;6.22;;;4.82;;
57627;SDS011;43451;49.060;10.616;2023-06-10T12:35:06;6.60;;;4.90;;
57627;SDS011;43451;49.060;10.616;2023-06-10T12:37:32;5.60;;;5.07;;
57627;SDS011;43451;49.060;10.616;2023-06-10T12:40:02;10.85;;;4.75;;
57627;SDS011;43451;49.060;10.616;2023-06-10T12:42:29;5.20;;;4.70;;
57627;SDS011;43451;49.060;10.616;2023-06-10T12:44:56;5.40;;;4.35;;
57627;SDS011;43451;49.060;10.616;2023-06-10T12:47:35;6.35;;;4.20;;
57627;SDS011;43451;49.060;10.616;2023-06-10T12:50:04;5.00;;;4.50;;
57627;SDS011;43451;49.060;10.616;2023-06-10T12:52:30;5.15;;;4.43;;
57627;SDS011;43451;49.060;10.616;2023-06-10T12:54:57;6.25;;;4.70;;
57627;SDS011;43451;49.060;10.616;2023-06-10T12:57:23;5.18;;;4.65;;
57627;SDS011;43451;49.060;10.616;2023-06-10T12:59:49;10.27;;;5.10;;
57627;SDS011;43451;49.060;10.616;2023-06-10T13:02:17;12.05;;;5.10;;
57627;SDS011;43451;49.060;10.616;2023-06-10T13:04:45;4.80;;;4.25;;
57627;SDS011;43451;49.060;10.616;2023-06-10T13:07:11;4.88;;;4.10;;
57627;SDS011;43451;49.060;10.616;2023-06-10T13:09:37;4.40;;;4.00;;
57627;SDS011;43451;49.060;10.616;2023-06-10T13:12:03;7.07;;;4.25;;
57627;SDS011;43451;49.060;10.616;2023-06-10T13:14:29;4.78;;;4.38;;
57627;SDS011;43451;49.060;10.616;2023-06-10T13:16:54;6.13;;;4.97;;
57627;SDS011;43451;49.060;10.616;2023-06-10T13:19:20;4.88;;;4.43;;
57627;SDS011;43451;49.060;10.616;2023-06-10T13:21:47;40.30;;;6.10;;
57627;SDS011;43451;49.060;10.616;2023-06-10T13:24:13;5.35;;;4.70;;
57627;SDS011;43451;49.060;10.616;2023-06-10T13:26:38;5.05;;;4.60;;
57627;SDS011;43451;49.060;10.616;2023-06-10T13:29:04;6.85;;;5.03;;
57627;SDS011;43451;49.060;10.616;2023-06-10T13:31:30;5.57;;;4.30;;
57627;SDS011;43451;49.060;10.616;2023-06-10T13:33:57;5.00;;;4.50;;
57627;SDS011;43451;49.060;10.616;2023-06-10T13:36:23;6.95;;;4.38;;
57627;SDS011;43451;49.060;10.616;2023-06-10T13:38:49;4.80;;;4.30;;
57627;SDS011;43451;49.060;10.616;2023-06-10T13:41:14;4.55;;;4.15;;
57627;SDS011;43451;49.060;10.616;2023-06-10T13:43:40;6.35;;;4.30;;
57627;SDS011;43451;49.060;10.616;2023-06-10T13:46:05;5.07;;;4.38;;
57627;SDS011;43451;49.060;10.616;2023-06-10T13:48:31;41.45;;;5.93;;
57627;SDS011;43451;49.060;10.616;2023-06-10T13:50:56;9.02;;;4.55;;
57627;SDS011;43451;49.060;10.616;2023-06-10T13:53:22;5.80;;;4.40;;
57627;SDS011;43451;49.060;10.616;2023-06-10T13:55:48;5.75;;;4.43;;
57627;SDS011;43451;49.060;10.616;2023-06-10T13:58:13;6.45;;;4.45;;
57627;SDS011;43451;49.060;10.616;2023-06-10T14:00:39;5.40;;;4.90;;
57627;SDS011;43451;49.060;10.616;2023-06-10T14:03:04;5.88;;;4.63;;
57627;SDS011;43451;49.060;10.616;2023-06-10T14:05:30;12.18;;;4.78;;
57627;SDS011;43451;49.060;10.616;2023-06-10T14:07:55;5.22;;;4.22;;
57627;SDS011;43451;49.060;10.616;2023-06-10T14:10:21;13.55;;;4.90;;
57627;SDS011;43451;49.060;10.616;2023-06-10T14:12:47;37.15;;;5.72;;
57627;SDS011;43451;49.060;10.616;2023-06-10T14:15:13;5.38;;;4.32;;
57627;SDS011;43451;49.060;10.616;2023-06-10T14:17:38;5.05;;;4.00;;
57627;SDS011;43451;49.060;10.616;2023-06-10T14:20:04;9.30;;;4.55;;
57627;SDS011;43451;49.060;10.616;2023-06-10T14:22:30;5.35;;;4.40;;
57627;SDS011;43451;49.060;10.616;2023-06-10T14:24:55;4.60;;;4.20;;
57627;SDS011;43451;49.060;10.616;2023-06-10T14:27:21;4.55;;;4.15;;
57627;SDS011;43451;49.060;10.616;2023-06-10T14:29:46;4.60;;;4.20;;
57627;SDS011;43451;49.060;10.616;2023-06-10T14:32:12;6.82;;;4.38;;
57627;SDS011;43451;49.060;10.616;2023-06-10T14:34:37;5.65;;;3.80;;
57627;SDS011;43451;49.060;10.616;2023-06-10T14:37:04;5.70;;;4.57;;
57627;SDS011;43451;49.060;10.616;2023-06-10T14:39:32;4.95;;;4.10;;
57627;SDS011;43451;49.060;10.616;2023-06-10T14:41:57;9.20;;;4.72;;
57627;SDS011;43451;49.060;10.616;2023-06-10T14:44:23;5.60;;;4.07;;
57627;SDS011;43451;49.060;10.616;2023-06-10T14:46:49;6.10;;;4.57;;
57627;SDS011;43451;49.060;10.616;2023-06-10T14:49:14;6.10;;;4.70;;
57627;SDS011;43451;49.060;10.616;2023-06-10T14:51:40;4.85;;;4.20;;
57627;SDS011;43451;49.060;10.616;2023-06-10T14:54:07;4.93;;;4.40;;
57627;SDS011;43451;49.060;10.616;2023-06-10T14:56:32;6.72;;;4.60;;
57627;SDS011;43451;49.060;10.616;2023-06-10T14:58:58;5.25;;;3.95;;
57627;SDS011;43451;49.060;10.616;2023-06-10T15:01:23;6.35;;;4.10;;
57627;SDS011;43451;49.060;10.616;2023-06-10T15:03:49;5.03;;;4.28;;
57627;SDS011;43451;49.060;10.616;2023-06-10T15:06:15;4.60;;;3.80;;
57627;SDS011;43451;49.060;10.616;2023-06-10T15:08:46;4.40;;;4.00;;
57627;SDS011;43451;49.060;10.616;2023-06-10T15:11:14;15.63;;;4.70;;
57627;SDS011;43451;49.060;10.616;2023-06-10T15:13:40;5.05;;;4.55;;
57627;SDS011;43451;49.060;10.616;2023-06-10T15:16:05;4.18;;;3.88;;
57627;SDS011;43451;49.060;10.616;2023-06-10T15:18:31;5.35;;;4.10;;
57627;SDS011;43451;49.060;10.616;2023-06-10T15:20:57;4.55;;;4.15;;
57627;SDS011;43451;49.060;10.616;2023-06-10T15:23:23;8.30;;;4.38;;
57627;SDS011;43451;49.060;10.616;2023-06-10T15:25:48;7.13;;;4.38;;
57627;SDS011;43451;49.060;10.616;2023-06-10T15:28:13;4.82;;;4.40;;
57627;SDS011;43451;49.060;10.616;2023-06-10T15:30:40;6.50;;;4.32;;
57627;SDS011;43451;49.060;10.616;2023-06-10T15:33:06;5.78;;;4.10;;
57627;SDS011;43451;49.060;10.616;2023-06-10T15:35:32;4.05;;;3.75;;
57627;SDS011;43451;49.060;10.616;2023-06-10T15:37:58;5.68;;;4.00;;
57627;SDS011;43451;49.060;10.616;2023-06-10T15:40:24;3.80;;;3.50;;
57627;SDS011;43451;49.060;10.616;2023-06-10T15:42:49;3.90;;;3.60;;
57627;SDS011;43451;49.060;10.616;2023-06-10T15:45:15;4.10;;;3.70;;